Time;durP1;ratioP1;P1;durP2;ratioP2;P2;SDS_P1;SDS_P2;PMS_P1;PMS_P2;Temp;Humidity;BMP_temperature;BMP_pressure;BME280_temperature;BME280_humidity;BME280_pressure;Samples;Min_cycle;Max_cycle;Signal;HPM_P1;HPM_P2
2022/12/13 00:02:13;;;;;;;26.77;24.30;;;;;;;-7.23;100.00;101224.63;5122821;29;20467;-67
2022/12/13 00:04:43;;;;;;;32.05;28.65;;;;;;;-7.02;100.00;101243.75;5123189;29;20035;-67
2022/12/13 00:07:13;;;;;;;29.60;25.55;;;;;;;-6.95;100.00;101237.03;5123329;29;20026;-67
2022/12/13 00:09:44;;;;;;;28.38;25.80;;;;;;;-6.84;100.00;101247.41;5123442;29;20023;-67
2022/12/13 00:12:15;;;;;;;29.13;26.33;;;;;;;-6.78;100.00;101240.78;5122496;29;20030;-67
2022/12/13 00:14:45;;;;;;;26.55;24.48;;;;;;;-6.76;100.00;101238.84;5123093;29;20128;-67
2022/12/13 00:17:15;;;;;;;30.95;27.85;;;;;;;-6.66;100.00;101238.88;5125755;28;20053;-67
2022/12/13 00:19:46;;;;;;;31.45;28.38;;;;;;;-6.63;100.00;101226.28;5127228;29;20034;-67
2022/12/13 00:22:17;;;;;;;29.45;26.33;;;;;;;-6.52;100.00;101235.84;5126648;29;20023;-67
2022/12/13 00:24:47;;;;;;;32.83;29.77;;;;;;;-6.41;100.00;101235.75;5126870;29;20034;-67
2022/12/13 00:27:17;;;;;;;31.75;28.73;;;;;;;-6.34;100.00;101238.63;5126726;29;20031;-68
2022/12/13 00:29:48;;;;;;;30.67;27.45;;;;;;;-6.46;100.00;101222.19;5126955;29;20054;-67
2022/12/13 00:32:18;;;;;;;32.40;29.27;;;;;;;-6.33;100.00;101230.59;5126546;29;20373;-68
2022/12/13 00:34:49;;;;;;;34.03;29.88;;;;;;;-6.26;100.00;101226.47;5126860;29;20112;-68
2022/12/13 00:37:19;;;;;;;30.50;26.13;;;;;;;-6.19;100.00;101227.56;5126689;29;20027;-67
2022/12/13 00:39:50;;;;;;;31.23;28.25;;;;;;;-6.15;100.00;101230.75;5127081;29;20023;-67
2022/12/13 00:42:21;;;;;;;30.20;27.23;;;;;;;-6.13;100.00;101224.41;5126317;29;20029;-67
2022/12/13 00:44:51;;;;;;;34.03;30.73;;;;;;;-6.14;100.00;101214.03;5126555;29;20031;-67
2022/12/13 00:47:22;;;;;;;33.40;29.70;;;;;;;-6.10;100.00;101217.22;5126647;29;20058;-67
2022/12/13 00:49:52;;;;;;;33.45;28.75;;;;;;;-6.10;100.00;101214.56;5126433;29;20057;-67
2022/12/13 00:52:22;;;;;;;38.05;30.60;;;;;;;-6.08;100.00;101210.00;5127526;29;20588;-67
2022/12/13 00:54:53;;;;;;;33.90;30.63;;;;;;;-6.14;100.00;101209.59;5127784;29;20113;-67
2022/12/13 00:57:23;;;;;;;32.63;29.73;;;;;;;-6.10;100.00;101207.53;5129451;29;20024;-68
2022/12/13 00:59:54;;;;;;;32.88;29.65;;;;;;;-6.10;100.00;101206.69;5127795;29;20067;-67
2022/12/13 01:02:24;;;;;;;30.25;27.50;;;;;;;-6.09;100.00;101203.09;5126316;29;20396;-67
2022/12/13 01:04:54;;;;;;;30.08;26.83;;;;;;;-6.13;100.00;101198.13;5126479;29;20159;-67
2022/12/13 01:07:25;;;;;;;31.92;28.70;;;;;;;-6.15;100.00;101188.72;5126458;29;20023;-67
2022/12/13 01:09:57;;;;;;;29.85;26.98;;;;;;;-6.14;100.00;101191.19;5126185;29;20024;-67
2022/12/13 01:12:27;;;;;;;33.35;29.85;;;;;;;-6.11;100.00;101191.88;5108725;29;20042;-67
2022/12/13 01:14:57;;;;;;;28.02;25.13;;;;;;;-6.10;100.00;101196.19;5125956;29;20027;-67
2022/12/13 01:17:29;;;;;;;27.90;25.40;;;;;;;-6.23;100.00;101170.16;5126511;29;20033;-67
2022/12/13 01:19:59;;;;;;;29.13;26.42;;;;;;;-6.08;100.00;101191.63;5126183;29;20031;-67
2022/12/13 01:22:30;;;;;;;30.90;27.98;;;;;;;-6.08;100.00;101186.34;5125690;29;20035;-67
2022/12/13 01:25:00;;;;;;;28.50;25.75;;;;;;;-6.09;100.00;101187.31;5125882;29;20387;-67
2022/12/13 01:27:31;;;;;;;30.17;27.30;;;;;;;-6.10;100.00;101185.66;5124732;28;20119;-67
2022/12/13 01:30:01;;;;;;;28.83;26.05;;;;;;;-6.18;100.00;101170.59;5125710;29;20027;-67
2022/12/13 01:32:32;;;;;;;31.17;28.33;;;;;;;-6.09;100.00;101188.16;5124349;29;20055;-67
2022/12/13 01:35:02;;;;;;;32.50;29.20;;;;;;;-6.11;100.00;101184.84;5125800;29;20034;-67
2022/12/13 01:37:33;;;;;;;32.50;26.92;;;;;;;-6.06;100.00;101195.72;5125782;29;20106;-67
2022/12/13 01:40:03;;;;;;;28.40;25.42;;;;;;;-6.08;100.00;101191.63;5124157;29;20121;-67
2022/12/13 01:42:37;;;;;;;39.53;29.10;;;;;;;-6.07;100.00;101199.34;5125130;29;20066;-67
2022/12/13 01:45:24;;;;;;;34.20;30.75;;;;;;;-6.06;100.00;101189.69;5126128;29;20027;-66
2022/12/13 01:48:02;;;;;;;31.88;28.48;;;;;;;-6.03;100.00;101195.44;5125630;29;20035;-67
2022/12/13 01:50:45;;;;;;;30.67;27.70;;;;;;;-6.20;100.00;101177.78;5125387;29;20023;-66
2022/12/13 01:53:20;;;;;;;35.38;30.00;;;;;;;-6.08;100.00;101196.88;5125259;29;20031;-66
2022/12/13 01:55:55;;;;;;;37.05;32.75;;;;;;;-6.30;100.00;101163.81;5125515;29;20023;-67
2022/12/13 01:58:27;;;;;;;28.92;25.80;;;;;;;-6.14;100.00;101187.75;5125870;29;20023;-66
2022/12/13 02:00:59;;;;;;;27.60;24.90;;;;;;;-6.34;100.00;101160.63;5124663;29;20428;-66
2022/12/13 02:03:30;;;;;;;31.45;26.67;;;;;;;-6.17;100.00;101198.53;5125104;29;20407;-66
2022/12/13 02:06:08;;;;;;;26.90;24.15;;;;;;;-6.21;100.00;101190.09;5124817;29;20023;-66
2022/12/13 02:08:41;;;;;;;33.50;30.52;;;;;;;-6.26;100.00;101189.66;5125274;29;20043;-66
2022/12/13 02:11:13;;;;;;;32.35;28.70;;;;;;;-6.34;100.00;101200.03;5124991;29;20487;-66
2022/12/13 02:13:43;;;;;;;29.52;23.40;;;;;;;-6.39;100.00;101193.56;5124659;28;20035;-66
2022/12/13 02:16:16;;;;;;;32.40;29.38;;;;;;;-6.45;100.00;101187.06;5125185;29;20019;-66
2022/12/13 02:19:15;;;;;;;29.05;26.13;;;;;;;-6.45;100.00;101178.34;5107967;29;20443;-66
2022/12/13 02:22:09;;;;;;;30.20;26.98;;;;;;;-6.41;100.00;101185.00;5124578;29;20480;-66
2022/12/13 02:25:02;;;;;;;28.45;25.55;;;;;;;-6.41;100.00;101191.06;5124627;28;20436;-66
2022/12/13 02:27:32;;;;;;;27.08;24.52;;;;;;;-6.42;100.00;101186.78;5124767;29;20150;-67
2022/12/13 02:30:06;;;;;;;28.17;25.38;;;;;;;-6.40;100.00;101176.97;5124734;29;20087;-66
2022/12/13 02:32:42;;;;;;;30.73;28.08;;;;;;;-6.39;100.00;101181.25;5124503;29;20086;-66
2022/12/13 02:35:29;;;;;;;31.92;27.60;;;;;;;-6.32;100.00;101186.75;5125339;28;20023;-66
2022/12/13 02:38:14;;;;;;;31.83;27.58;;;;;;;-6.34;100.00;101186.91;5125224;29;20487;-66
2022/12/13 02:41:12;;;;;;;30.38;27.45;;;;;;;-6.37;100.00;101168.81;5124729;28;20027;-66
2022/12/13 02:44:03;;;;;;;32.67;29.45;;;;;;;-6.34;100.00;101179.03;5107415;29;20039;-67
2022/12/13 02:46:39;;;;;;;27.80;25.27;;;;;;;-6.39;100.00;101178.63;5124832;29;20071;-66
2022/12/13 02:49:10;;;;;;;28.42;25.73;;;;;;;-6.48;100.00;101174.19;5125085;29;20035;-66
2022/12/13 02:51:42;;;;;;;31.95;28.52;;;;;;;-6.49;100.00;101175.16;5124762;29;20447;-67
2022/12/13 02:54:12;;;;;;;27.77;24.83;;;;;;;-6.58;100.00;101144.47;5124540;28;20039;-66
2022/12/13 02:56:55;;;;;;;28.05;25.50;;;;;;;-6.44;100.00;101177.38;5124986;29;20073;-66
2022/12/13 02:59:38;;;;;;;34.40;28.95;;;;;;;-6.47;100.00;101167.97;5107689;29;20071;-67
2022/12/13 03:02:39;;;;;;;24.83;22.27;;;;;;;-6.39;100.00;101175.16;5124519;29;20035;-67
2022/12/13 03:08:47;;;;;;;31.13;28.05;;;;;;;-6.59;100.00;101138.38;5124985;29;20085;-67
2022/12/13 03:11:20;;;;;;;28.60;25.90;;;;;;;-6.47;100.00;101166.19;5124721;29;20123;-66
2022/12/13 03:14:04;;;;;;;32.67;28.98;;;;;;;-6.45;100.00;101170.47;5124081;28;20513;-67
2022/12/13 03:16:43;;;;;;;29.33;25.67;;;;;;;-6.51;100.00;101166.59;5124697;29;20472;-67
2022/12/13 03:19:13;;;;;;;29.65;25.63;;;;;;;-6.52;100.00;101175.44;5124441;29;20392;-67
2022/12/13 03:21:48;;;;;;;28.40;25.27;;;;;;;-6.50;100.00;101173.50;5124566;29;20026;-67
2022/12/13 03:24:20;;;;;;;31.90;24.85;;;;;;;-6.53;100.00;101179.03;5124161;28;20554;-67
2022/12/13 03:26:51;;;;;;;28.50;24.77;;;;;;;-6.61;100.00;101178.88;5124381;29;20031;-67
2022/12/13 03:29:21;;;;;;;28.33;25.67;;;;;;;-6.61;100.00;101176.25;5124475;29;20031;-67
2022/12/13 03:31:52;;;;;;;27.75;25.10;;;;;;;-6.63;100.00;101175.56;5124129;29;20027;-67
2022/12/13 03:34:23;;;;;;;27.63;25.08;;;;;;;-6.67;100.00;101172.41;5123967;28;20102;-67
2022/12/13 03:36:53;;;;;;;29.52;26.95;;;;;;;-6.86;100.00;101146.94;5124595;29;20086;-67
2022/12/13 03:39:24;;;;;;;28.67;25.25;;;;;;;-6.71;100.00;101172.81;5123935;29;20062;-67
2022/12/13 03:41:54;;;;;;;27.38;24.40;;;;;;;-6.69;100.00;101178.75;5123063;29;20027;-67
2022/12/13 03:44:25;;;;;;;28.88;26.33;;;;;;;-6.69;100.00;101173.50;5123740;28;20029;-67
2022/12/13 03:46:55;;;;;;;28.95;26.27;;;;;;;-6.71;100.00;101167.56;5123407;29;20444;-67
2022/12/13 03:49:25;;;;;;;25.73;23.08;;;;;;;-6.69;100.00;101166.44;5124116;29;20035;-67
2022/12/13 03:51:56;;;;;;;28.45;24.77;;;;;;;-6.72;100.00;101165.88;5122902;29;20162;-67
2022/12/13 03:54:26;;;;;;;28.45;25.48;;;;;;;-6.72;100.00;101163.25;5123548;28;20015;-67
2022/12/13 03:56:57;;;;;;;29.65;26.63;;;;;;;-6.68;100.00;101162.03;5123493;29;20023;-66
2022/12/13 03:59:27;;;;;;;26.75;24.55;;;;;;;-6.75;100.00;101140.72;5106616;29;20057;-67
2022/12/13 04:01:57;;;;;;;22.30;20.23;;;;;;;-6.70;100.00;101146.41;5123434;29;20031;-68
2022/12/13 04:04:28;;;;;;;26.13;24.05;;;;;;;-6.73;100.00;101145.84;5123442;28;20031;-67
2022/12/13 04:06:58;;;;;;;26.40;23.90;;;;;;;-6.79;100.00;101130.63;5122934;29;20035;-66
2022/12/13 04:09:28;;;;;;;31.48;28.27;;;;;;;-6.76;100.00;101140.88;5123241;29;20031;-66
2022/12/13 04:14:48;;;;;;;26.45;23.98;;;;;;;-6.85;100.00;101143.34;5123127;28;20094;-66
2022/12/13 04:17:18;;;;;;;26.77;24.17;;;;;;;-6.86;100.00;101143.47;5123466;29;20023;-66
2022/12/13 04:19:48;;;;;;;24.52;22.45;;;;;;;-6.85;100.00;101137.25;5123404;29;20023;-66
2022/12/13 04:22:19;;;;;;;28.70;24.75;;;;;;;-6.83;100.00;101137.94;5122703;29;20023;-66
2022/12/13 04:24:49;;;;;;;27.63;25.13;;;;;;;-6.87;100.00;101136.56;5122984;28;20391;-67
2022/12/13 04:27:19;;;;;;;28.98;23.30;;;;;;;-6.98;100.00;101113.09;5123343;29;20070;-66
2022/12/13 04:29:50;;;;;;;28.52;26.00;;;;;;;-6.91;100.00;101128.13;5123084;29;20023;-67
2022/12/13 04:32:20;;;;;;;24.23;21.98;;;;;;;-6.92;100.00;101126.47;5122936;29;20051;-67
2022/12/13 04:34:51;;;;;;;28.33;25.48;;;;;;;-6.96;100.00;101127.72;5123851;28;20031;-67
2022/12/13 04:37:21;;;;;;;27.83;24.70;;;;;;;-6.98;100.00;101131.47;5123411;29;20074;-67
2022/12/13 04:39:51;;;;;;;27.67;25.08;;;;;;;-7.03;100.00;101125.78;5123682;29;20066;-67
2022/12/13 04:42:22;;;;;;;25.58;23.00;;;;;;;-7.11;100.00;101121.19;5123211;29;20027;-67
2022/12/13 04:44:53;;;;;;;30.60;27.35;;;;;;;-7.08;100.00;101120.94;5123824;28;20388;-66
2022/12/13 04:47:23;;;;;;;37.15;27.90;;;;;;;-7.13;100.00;101114.44;5105882;29;20090;-66
2022/12/13 04:49:54;;;;;;;23.40;21.33;;;;;;;-7.19;100.00;101108.75;5123289;29;20140;-67
2022/12/13 04:52:24;;;;;;;25.75;23.38;;;;;;;-7.18;100.00;101114.81;5122361;29;20078;-67
2022/12/13 04:54:54;;;;;;;28.02;24.85;;;;;;;-7.24;100.00;101113.59;5123005;28;20029;-67
2022/12/13 04:57:25;;;;;;;30.08;26.25;;;;;;;-7.17;100.00;101111.25;5123644;29;20033;-67
2022/12/13 04:59:55;;;;;;;33.45;29.85;;;;;;;-7.19;100.00;101108.75;5123829;29;20043;-67
2022/12/13 05:02:26;;;;;;;30.95;27.73;;;;;;;-7.23;100.00;101106.56;5123383;28;20023;-69
2022/12/13 05:04:57;;;;;;;29.38;26.40;;;;;;;-7.24;100.00;101107.53;5126375;28;20063;-67
2022/12/13 05:07:27;;;;;;;27.10;24.58;;;;;;;-7.22;100.00;101097.72;5123041;29;20035;-67
2022/12/13 05:09:57;;;;;;;27.70;24.85;;;;;;;-7.20;100.00;101108.88;5125072;29;20039;-67
2022/12/13 05:12:28;;;;;;;25.55;22.92;;;;;;;-7.25;100.00;101111.94;5125207;29;20046;-67
2022/12/13 05:14:58;;;;;;;25.13;22.65;;;;;;;-7.27;100.00;101113.03;5126130;28;20027;-67
2022/12/13 05:17:29;;;;;;;28.92;25.95;;;;;;;-7.34;100.00;101110.09;5125999;29;20031;-67
2022/12/13 05:19:59;;;;;;;26.05;23.80;;;;;;;-7.41;100.00;101113.41;5108740;29;20027;-68
2022/12/13 05:22:29;;;;;;;23.00;20.67;;;;;;;-7.58;100.00;101092.09;5125248;29;20024;-67
2022/12/13 05:25:00;;;;;;;26.88;24.33;;;;;;;-7.55;100.00;101112.81;5123193;28;20034;-67
2022/12/13 05:27:30;;;;;;;26.92;24.30;;;;;;;-7.70;100.00;101105.44;5125942;29;20110;-67
2022/12/13 05:30:00;;;;;;;25.77;22.58;;;;;;;-7.63;100.00;101112.66;5125720;29;20034;-67
2022/12/13 05:32:37;;;;;;;25.40;22.88;;;;;;;-7.60;100.00;101122.03;5125879;29;20051;-67
2022/12/13 05:35:08;;;;;;;26.48;23.60;;;;;;;-7.64;100.00;101115.41;5125554;28;20027;-68
2022/12/13 05:37:38;;;;;;;24.60;22.58;;;;;;;-7.57;100.00;101114.75;5125763;29;20066;-67
2022/12/13 05:40:09;;;;;;;28.27;25.55;;;;;;;-7.71;100.00;101090.66;5126131;29;20019;-66
2022/12/13 05:42:40;;;;;;;30.38;27.33;;;;;;;-7.58;100.00;101113.09;5124893;29;20031;-66
2022/12/13 05:45:11;;;;;;;28.02;25.17;;;;;;;-7.59;100.00;101121.06;5107887;29;20062;-67
2022/12/13 05:47:41;;;;;;;23.85;22.08;;;;;;;-7.66;100.00;101112.06;5124743;29;20448;-65
2022/12/13 05:50:13;;;;;;;22.10;20.23;;;;;;;-7.66;100.00;101117.31;5125049;29;20162;-66
2022/12/13 05:52:44;;;;;;;27.33;24.92;;;;;;;-7.70;100.00;101110.66;5124935;29;20110;-66
2022/12/13 05:55:14;;;;;;;27.08;24.25;;;;;;;-7.64;100.00;101115.41;5125097;28;20155;-66
2022/12/13 05:57:45;;;;;;;22.25;20.30;;;;;;;-7.71;100.00;101116.88;5124879;29;20027;-67
2022/12/13 06:00:15;;;;;;;26.10;23.42;;;;;;;-7.74;100.00;101120.59;5124465;29;20426;-66
2022/12/13 06:02:46;;;;;;;25.38;22.92;;;;;;;-7.90;100.00;101107.97;5124583;29;20024;-66
2022/12/13 06:05:16;;;;;;;26.77;23.67;;;;;;;-7.77;100.00;101128.72;5124546;28;20102;-67
2022/12/13 06:07:47;;;;;;;25.92;22.30;;;;;;;-7.79;100.00;101124.59;5125271;29;20059;-67
2022/12/13 06:10:17;;;;;;;26.65;24.10;;;;;;;-7.65;100.00;101132.91;5107702;29;20527;-67
2022/12/13 06:12:48;;;;;;;27.45;24.85;;;;;;;-7.50;100.00;101123.72;5106842;29;20035;-66
2022/12/13 06:15:19;;;;;;;28.77;25.63;;;;;;;-7.43;100.00;101105.66;5124370;28;20349;-66
2022/12/13 06:17:49;;;;;;;25.90;23.35;;;;;;;-7.39;100.00;101100.97;5124475;29;20035;-66
2022/12/13 06:20:20;;;;;;;26.00;23.52;;;;;;;-7.32;100.00;101115.22;5107137;29;20548;-66
2022/12/13 06:22:53;;;;;;;27.23;24.65;;;;;;;-7.29;100.00;101107.09;5106936;29;20242;-68
2022/12/13 06:25:23;;;;;;;26.40;23.80;;;;;;;-7.17;100.00;101117.31;5124572;28;20453;-67
2022/12/13 06:27:54;;;;;;;31.83;26.35;;;;;;;-7.17;100.00;101101.56;5124152;29;20054;-67
2022/12/13 06:30:24;;;;;;;29.52;26.42;;;;;;;-7.15;100.00;101106.69;5124263;29;20087;-66
2022/12/13 06:32:55;;;;;;;26.85;22.10;;;;;;;-7.13;100.00;101104.75;5123935;29;20563;-66
2022/12/13 06:35:26;;;;;;;30.48;25.38;;;;;;;-7.07;100.00;101112.09;5123801;28;20086;-66
2022/12/13 06:37:57;;;;;;;26.55;24.17;;;;;;;-7.29;100.00;101072.97;5123733;29;20023;-66
2022/12/13 06:40:29;;;;;;;25.02;22.63;;;;;;;-7.03;100.00;101097.75;5124182;29;20560;-66
2022/12/13 06:42:59;;;;;;;27.92;25.50;;;;;;;-7.13;100.00;101099.50;5123015;28;20023;-67
2022/12/13 06:45:30;;;;;;;24.30;22.05;;;;;;;-7.10;100.00;101096.63;5117368;29;20046;-66
2022/12/13 06:48:00;;;;;;;26.40;23.73;;;;;;;-7.12;100.00;101090.69;5110522;29;20028;-67
2022/12/13 06:50:31;;;;;;;25.65;23.17;;;;;;;-7.18;100.00;101078.09;5103460;29;20031;-67
2022/12/13 06:53:01;;;;;;;26.55;24.00;;;;;;;-7.12;100.00;101085.44;5099992;29;20020;-67
2022/12/13 06:55:34;;;;;;;22.92;20.35;;;;;;;-7.12;100.00;101088.06;5100674;29;20090;-67
2022/12/13 06:58:04;;;;;;;28.83;23.92;;;;;;;-7.13;100.00;101094.25;5100917;29;20035;-67
2022/12/13 07:00:35;;;;;;;27.50;24.85;;;;;;;-7.14;100.00;101100.47;5102577;29;20024;-67
2022/12/13 07:03:05;;;;;;;28.55;25.90;;;;;;;-7.14;100.00;101079.47;5101152;29;20036;-67
2022/12/13 07:05:37;;;;;;;29.60;22.73;;;;;;;-7.09;100.00;101082.53;5103721;29;20297;-67
2022/12/13 07:08:08;;;;;;;31.52;24.33;;;;;;;-7.11;100.00;101081.00;5103364;29;20028;-67
2022/12/13 07:10:39;;;;;;;26.38;23.98;;;;;;;-7.07;100.00;101085.84;5103543;29;20028;-68
2022/12/13 07:13:09;;;;;;;27.75;25.17;;;;;;;-6.98;100.00;101090.28;5102739;29;20202;-67
2022/12/13 07:15:40;;;;;;;27.42;24.63;;;;;;;-6.90;100.00;101092.19;5104197;29;20035;-65
2022/12/13 07:18:10;;;;;;;30.60;27.65;;;;;;;-6.89;100.00;101088.63;5086217;29;20388;-63
2022/12/13 07:20:41;;;;;;;28.05;25.33;;;;;;;-6.86;100.00;101104.09;5086256;29;20278;-64
2022/12/13 07:23:12;;;;;;;26.45;23.67;;;;;;;-6.82;100.00;101098.44;5102315;29;20091;-66
2022/12/13 07:25:52;;;;;;;30.05;26.85;;;;;;;-6.81;100.00;101096.63;5102102;29;20020;-65
2022/12/13 07:28:23;;;;;;;28.15;25.85;;;;;;;-6.83;100.00;101101.19;5098086;29;20404;-66
2022/12/13 07:30:54;;;;;;;27.63;25.13;;;;;;;-6.87;100.00;101113.75;5099186;29;20034;-66
2022/12/13 07:33:24;;;;;;;30.77;24.67;;;;;;;-6.91;100.00;101104.50;5103091;29;20034;-66
2022/12/13 07:36:19;;;;;;;24.98;22.55;;;;;;;-6.85;100.00;101101.34;5103500;29;20023;-65
2022/12/13 07:38:51;;;;;;;35.58;29.05;;;;;;;-6.74;100.00;101110.06;5103414;29;20078;-65
2022/12/13 07:41:25;;;;;;;29.77;26.80;;;;;;;-6.77;100.00;101102.44;5103208;29;20024;-65
2022/12/13 07:43:56;;;;;;;32.67;27.85;;;;;;;-6.67;100.00;101119.88;5102816;29;20028;-65
2022/12/13 07:46:26;;;;;;;29.15;26.15;;;;;;;-6.68;100.00;101117.38;5101966;29;20392;-65
2022/12/13 07:48:56;;;;;;;29.23;26.45;;;;;;;-6.71;100.00;101122.91;5131888;23;20035;-62
2022/12/13 07:51:27;;;;;;;28.92;26.33;;;;;;;-6.67;100.00;101116.41;5135031;28;20027;-62
2022/12/13 07:53:57;;;;;;;27.75;24.65;;;;;;;-6.66;100.00;101118.06;5142593;28;20050;-64
2022/12/13 07:56:27;;;;;;;28.77;25.45;;;;;;;-6.61;100.00;101118.47;5141447;28;20033;-62
2022/12/13 07:58:58;;;;;;;30.77;26.73;;;;;;;-6.55;100.00;101124.00;5142171;28;20077;-62
2022/12/13 08:01:33;;;;;;;31.73;26.90;;;;;;;-6.48;100.00;101114.59;5143266;28;20027;-63
2022/12/13 08:04:03;;;;;;;28.48;25.73;;;;;;;-6.42;100.00;101110.59;5125859;28;20223;-62
2022/12/13 08:06:35;;;;;;;30.00;26.92;;;;;;;-6.36;100.00;101103.94;5143581;28;20023;-61
2022/12/13 08:09:06;;;;;;;29.52;26.40;;;;;;;-6.34;100.00;101115.94;5143462;28;20466;-63
2022/12/13 08:11:36;;;;;;;30.73;27.80;;;;;;;-6.28;100.00;101110.16;5144161;28;20059;-62
2022/12/13 08:14:07;;;;;;;29.25;26.42;;;;;;;-6.23;100.00;101110.56;5143488;28;20027;-61
2022/12/13 08:16:38;;;;;;;31.23;28.27;;;;;;;-6.39;100.00;101088.47;5144610;28;20045;-61
2022/12/13 08:19:09;;;;;;;32.58;29.15;;;;;;;-6.11;100.00;101124.38;5142523;28;20685;-62
2022/12/13 08:21:40;;;;;;;32.10;29.00;;;;;;;-6.13;100.00;101123.69;5124767;28;20099;-60
2022/12/13 08:24:11;;;;;;;33.78;29.80;;;;;;;-6.08;100.00;101125.91;5141452;28;20476;-62
2022/12/13 08:26:41;;;;;;;29.55;26.48;;;;;;;-6.05;100.00;101125.59;5142531;28;20038;-62
2022/12/13 08:29:12;;;;;;;29.85;26.95;;;;;;;-6.12;100.00;101122.72;5142718;28;20015;-62
2022/12/13 08:31:42;;;;;;;35.13;31.40;;;;;;;-6.14;100.00;101117.59;5142582;28;20033;-62
2022/12/13 08:34:12;;;;;;;29.52;26.67;;;;;;;-6.13;100.00;101121.88;5125003;28;20019;-62
2022/12/13 08:36:43;;;;;;;31.25;28.45;;;;;;;-6.08;100.00;101131.97;5142680;28;20077;-62
2022/12/13 08:39:13;;;;;;;32.10;28.50;;;;;;;-6.05;100.00;101128.22;5146194;28;20026;-61
2022/12/13 08:41:44;;;;;;;36.13;29.90;;;;;;;-6.11;100.00;101124.38;5146892;28;20491;-62
2022/12/13 08:44:14;;;;;;;33.00;29.67;;;;;;;-6.03;100.00;101134.16;5146007;28;20030;-63
2022/12/13 08:46:44;;;;;;;38.38;32.13;;;;;;;-6.02;100.00;101130.56;5146063;28;20082;-63
2022/12/13 08:49:15;;;;;;;33.97;30.92;;;;;;;-6.01;100.00;101130.41;5146104;28;20391;-63
2022/12/13 08:51:45;;;;;;;33.03;29.83;;;;;;;-5.97;100.00;101129.16;5145880;28;20153;-63
2022/12/13 08:54:15;;;;;;;34.83;31.63;;;;;;;-5.96;100.00;101140.50;5146199;28;20019;-62
2022/12/13 08:56:46;;;;;;;30.92;27.33;;;;;;;-5.95;100.00;101136.91;5146338;28;20176;-63
2022/12/13 08:59:17;;;;;;;35.85;32.20;;;;;;;-5.89;100.00;101141.63;5146226;28;20462;-63
2022/12/13 09:01:47;;;;;;;33.80;30.77;;;;;;;-5.82;100.00;101137.41;5128672;28;20034;-62
2022/12/13 09:04:18;;;;;;;36.58;31.55;;;;;;;-5.71;100.00;101139.03;5145895;28;20018;-65
2022/12/13 09:06:48;;;;;;;37.22;33.50;;;;;;;-5.70;100.00;101124.91;5144985;28;20034;-63
2022/12/13 09:09:18;;;;;;;34.78;31.65;;;;;;;-5.54;100.00;101151.44;5146363;28;20023;-65
2022/12/13 09:11:49;;;;;;;35.20;32.05;;;;;;;-5.48;100.00;101153.47;5146206;28;20114;-64
2022/12/13 09:14:19;;;;;;;36.05;32.33;;;;;;;-5.44;100.00;101149.56;5145844;28;20022;-64
2022/12/13 09:16:49;;;;;;;34.40;30.95;;;;;;;-5.39;100.00;101141.25;5145950;28;20022;-63
2022/12/13 09:19:20;;;;;;;34.67;28.45;;;;;;;-5.45;100.00;101130.31;5128735;28;20022;-64
2022/12/13 09:21:51;;;;;;;35.15;31.63;;;;;;;-5.41;100.00;101140.56;5146003;28;20082;-65
2022/12/13 09:24:21;;;;;;;32.42;29.17;;;;;;;-5.45;100.00;101150.53;5145759;28;20030;-66
2022/12/13 09:26:52;;;;;;;37.67;31.98;;;;;;;-5.45;100.00;101153.19;5145842;28;20484;-65
2022/12/13 09:29:22;;;;;;;33.65;30.25;;;;;;;-5.41;100.00;101151.09;5145578;28;20023;-65
2022/12/13 09:31:52;;;;;;;37.17;33.70;;;;;;;-5.35;100.00;101153.16;5145306;28;20041;-65
2022/12/13 09:34:23;;;;;;;32.33;29.13;;;;;;;-5.26;100.00;101150.47;5132594;28;20149;-64
2022/12/13 09:36:53;;;;;;;33.88;30.52;;;;;;;-5.12;100.00;101147.34;5125112;29;20078;-65
2022/12/13 09:39:24;;;;;;;34.58;31.25;;;;;;;-4.97;100.00;101155.59;5124807;29;20476;-65
2022/12/13 09:41:58;;;;;;;33.65;30.40;;;;;;;-5.04;100.00;101127.34;5124545;29;20467;-65
2022/12/13 09:44:32;;;;;;;33.25;29.42;;;;;;;-4.84;100.00;101148.13;5124847;29;20039;-65
2022/12/13 09:47:07;;;;;;;33.95;30.58;;;;;;;-4.84;100.00;101148.13;5124796;29;20040;-65
2022/12/13 09:49:40;;;;;;;37.65;32.22;;;;;;;-4.87;100.00;101148.44;5113908;28;20034;-65
2022/12/13 09:52:15;;;;;;;37.97;33.97;;;;;;;-4.85;100.00;101154.38;5117607;29;20027;-64
2022/12/13 09:54:46;;;;;;;32.58;29.13;;;;;;;-4.87;100.00;101161.59;5124330;29;20028;-65
2022/12/13 09:57:19;;;;;;;30.75;27.70;;;;;;;-4.87;100.00;101160.75;5123454;29;20039;-64
2022/12/13 09:59:49;;;;;;;37.70;33.67;;;;;;;-4.85;100.00;101149.09;5124620;29;20057;-64
2022/12/13 10:02:20;;;;;;;34.97;31.27;;;;;;;-4.78;100.00;101150.19;5124246;29;20050;-64
2022/12/13 10:04:51;;;;;;;34.70;31.23;;;;;;;-4.73;100.00;101143.63;5123824;29;20526;-64
2022/12/13 10:07:23;;;;;;;30.58;27.52;;;;;;;-4.68;100.00;101136.94;5124650;29;20039;-64
2022/12/13 10:09:59;;;;;;;31.60;28.40;;;;;;;-4.62;100.00;101138.94;5124278;29;20040;-64
2022/12/13 10:12:34;;;;;;;36.65;33.05;;;;;;;-4.65;100.00;101122.63;5123743;29;20082;-64
2022/12/13 10:15:07;;;;;;;35.83;32.67;;;;;;;-4.45;100.00;101137.31;5123423;29;20082;-64
2022/12/13 10:17:39;;;;;;;34.25;30.65;;;;;;;-4.30;100.00;101133.13;5124275;29;20506;-64
2022/12/13 10:20:17;;;;;;;36.22;32.85;;;;;;;-4.17;100.00;101127.47;5123427;28;20467;-64
2022/12/13 10:22:47;;;;;;;42.28;33.80;;;;;;;-4.06;100.00;101121.13;5118006;28;20130;-65
2022/12/13 10:25:46;;;;;;;37.30;33.70;;;;;;;-3.92;100.00;101123.19;5123290;28;20106;-65
2022/12/13 10:28:23;;;;;;;36.22;32.58;;;;;;;-3.78;100.00;101122.63;5123748;29;20538;-64
2022/12/13 10:30:54;;;;;;;37.75;33.72;;;;;;;-3.67;100.00;101111.78;5123111;29;20019;-65
2022/12/13 10:33:28;;;;;;;37.65;33.80;;;;;;;-3.61;100.00;101108.53;5122878;28;20158;-64
2022/12/13 10:36:14;;;;;;;40.58;36.13;;;;;;;-3.57;100.00;101101.13;5123184;29;20247;-65
2022/12/13 10:38:45;;;;;;;32.97;29.88;;;;;;;-3.54;100.00;101109.56;5123794;29;20027;-64
2022/12/13 10:41:36;;;;;;;36.47;32.25;;;;;;;-3.52;100.00;101099.66;5123400;29;20023;-65
2022/12/13 10:44:10;;;;;;;37.75;33.65;;;;;;;-3.44;100.00;101102.31;5122978;28;20439;-65
2022/12/13 10:46:48;;;;;;;39.28;32.75;;;;;;;-3.37;100.00;101096.41;5123523;29;20365;-65
2022/12/13 10:49:23;;;;;;;37.13;30.60;;;;;;;-3.25;100.00;101103.88;5129914;28;20038;-64
2022/12/13 10:51:54;;;;;;;36.45;32.95;;;;;;;-3.17;100.00;101101.25;5140376;28;20030;-64
2022/12/13 10:54:36;;;;;;;36.65;32.90;;;;;;;-3.12;100.00;101088.38;5123820;28;20030;-65
2022/12/13 10:57:10;;;;;;;37.10;33.42;;;;;;;-3.13;100.00;101088.53;5112222;29;20395;-64
2022/12/13 10:59:49;;;;;;;39.83;34.05;;;;;;;-3.09;100.00;101074.03;5123171;28;20366;-65
2022/12/13 11:02:28;;;;;;;36.85;33.13;;;;;;;-3.06;100.00;101082.47;5122016;28;20437;-64
2022/12/13 11:05:19;;;;;;;35.17;31.73;;;;;;;-3.04;100.00;101079.66;5122667;29;20089;-65
2022/12/13 11:07:50;;;;;;;39.95;34.00;;;;;;;-3.08;100.00;101088.91;5123212;28;20085;-64
2022/12/13 11:10:26;;;;;;;39.05;35.35;;;;;;;-3.03;100.00;101077.84;5122792;29;20439;-65
2022/12/13 11:13:03;;;;;;;35.30;31.75;;;;;;;-2.99;100.00;101069.44;5121973;28;20035;-66
2022/12/13 11:15:36;;;;;;;36.47;32.88;;;;;;;-2.79;100.00;101068.13;5122670;29;20575;-65
2022/12/13 11:18:19;;;;;;;38.15;33.10;;;;;;;-2.73;100.00;101062.19;5129799;28;20033;-65
2022/12/13 11:20:59;;;;;;;35.40;30.17;;;;;;;-2.65;100.00;101058.75;5143011;28;20078;-65
2022/12/13 11:23:29;;;;;;;;;;;;;;;-2.50;100.00;101061.53;5141607;28;20023;-65
2022/12/13 11:26:07;;;;;;;29.70;27.05;;;;;;;-2.48;100.00;101054.25;5142450;28;20186;-65
2022/12/13 11:28:58;;;;;;;36.72;32.45;;;;;;;-2.50;100.00;101050.94;5139222;28;20031;-65
2022/12/13 11:31:53;;;;;;;31.77;28.33;;;;;;;-2.44;100.00;101040.53;5110881;29;20027;-65
2022/12/13 11:34:31;;;;;;;30.00;27.17;;;;;;;-2.43;100.00;101030.78;5103100;29;20059;-65